sensor_id;sensor_type;location;lat;lon;timestamp;P1;durP1;ratioP1;P2;durP2;ratioP2
39792;SDS011;26080;42.264;24.536;2023-03-08T00:01:22;0.75;;;0.73;;
39792;SDS011;26080;42.264;24.536;2023-03-08T00:03:55;0.65;;;0.65;;
39792;SDS011;26080;42.264;24.536;2023-03-08T00:06:22;4.75;;;2.47;;
39792;SDS011;26080;42.264;24.536;2023-03-08T00:08:52;1.13;;;1.05;;
39792;SDS011;26080;42.264;24.536;2023-03-08T00:11:19;2.03;;;1.70;;
39792;SDS011;26080;42.264;24.536;2023-03-08T00:13:44;5.88;;;2.05;;
39792;SDS011;26080;42.264;24.536;2023-03-08T00:16:10;2.10;;;1.58;;
39792;SDS011;26080;42.264;24.536;2023-03-08T00:18:37;5.32;;;2.17;;
39792;SDS011;26080;42.264;24.536;2023-03-08T00:21:08;3.75;;;1.65;;
39792;SDS011;26080;42.264;24.536;2023-03-08T00:23:35;1.70;;;1.38;;
39792;SDS011;26080;42.264;24.536;2023-03-08T00:26:01;1.83;;;1.55;;
39792;SDS011;26080;42.264;24.536;2023-03-08T00:28:27;0.68;;;0.68;;
39792;SDS011;26080;42.264;24.536;2023-03-08T00:31:01;1.27;;;1.10;;
39792;SDS011;26080;42.264;24.536;2023-03-08T00:33:28;0.45;;;0.45;;
39792;SDS011;26080;42.264;24.536;2023-03-08T00:35:58;3.42;;;1.95;;
39792;SDS011;26080;42.264;24.536;2023-03-08T00:38:25;0.90;;;0.88;;
39792;SDS011;26080;42.264;24.536;2023-03-08T00:40:52;2.90;;;2.05;;
39792;SDS011;26080;42.264;24.536;2023-03-08T00:43:21;0.60;;;0.60;;
39792;SDS011;26080;42.264;24.536;2023-03-08T00:45:46;2.47;;;1.42;;
39792;SDS011;26080;42.264;24.536;2023-03-08T00:48:12;2.03;;;1.67;;
39792;SDS011;26080;42.264;24.536;2023-03-08T00:50:37;2.03;;;1.75;;
39792;SDS011;26080;42.264;24.536;2023-03-08T00:53:03;1.25;;;1.02;;
39792;SDS011;26080;42.264;24.536;2023-03-08T00:55:29;1.42;;;1.23;;
39792;SDS011;26080;42.264;24.536;2023-03-08T00:57:54;1.20;;;1.10;;
39792;SDS011;26080;42.264;24.536;2023-03-08T01:00:20;2.20;;;1.75;;
39792;SDS011;26080;42.264;24.536;2023-03-08T01:02:46;1.13;;;1.05;;
39792;SDS011;26080;42.264;24.536;2023-03-08T01:05:11;5.40;;;3.25;;
39792;SDS011;26080;42.264;24.536;2023-03-08T01:07:37;1.58;;;1.48;;
39792;SDS011;26080;42.264;24.536;2023-03-08T01:10:04;1.20;;;1.10;;
39792;SDS011;26080;42.264;24.536;2023-03-08T01:12:33;1.92;;;1.80;;
39792;SDS011;26080;42.264;24.536;2023-03-08T01:14:59;3.38;;;2.40;;
39792;SDS011;26080;42.264;24.536;2023-03-08T01:17:25;2.63;;;1.33;;
39792;SDS011;26080;42.264;24.536;2023-03-08T01:19:50;3.35;;;1.30;;
39792;SDS011;26080;42.264;24.536;2023-03-08T01:22:16;3.85;;;3.35;;
39792;SDS011;26080;42.264;24.536;2023-03-08T01:24:45;25.48;;;7.68;;
39792;SDS011;26080;42.264;24.536;2023-03-08T01:27:12;4.20;;;3.05;;
39792;SDS011;26080;42.264;24.536;2023-03-08T01:29:38;8.18;;;4.10;;
39792;SDS011;26080;42.264;24.536;2023-03-08T01:32:04;1.92;;;1.73;;
39792;SDS011;26080;42.264;24.536;2023-03-08T01:34:30;6.70;;;4.25;;
39792;SDS011;26080;42.264;24.536;2023-03-08T01:36:55;4.05;;;2.88;;
39792;SDS011;26080;42.264;24.536;2023-03-08T01:39:21;2.28;;;2.10;;
39792;SDS011;26080;42.264;24.536;2023-03-08T01:41:46;1.17;;;0.95;;
39792;SDS011;26080;42.264;24.536;2023-03-08T01:44:17;2.15;;;1.95;;
39792;SDS011;26080;42.264;24.536;2023-03-08T01:46:44;3.47;;;1.92;;
39792;SDS011;26080;42.264;24.536;2023-03-08T01:49:12;2.47;;;2.20;;
39792;SDS011;26080;42.264;24.536;2023-03-08T01:51:39;6.63;;;2.92;;
39792;SDS011;26080;42.264;24.536;2023-03-08T01:54:10;8.15;;;2.10;;
39792;SDS011;26080;42.264;24.536;2023-03-08T01:57:08;3.75;;;2.78;;
39792;SDS011;26080;42.264;24.536;2023-03-08T01:59:39;6.80;;;3.65;;
39792;SDS011;26080;42.264;24.536;2023-03-08T02:02:06;7.78;;;2.90;;
39792;SDS011;26080;42.264;24.536;2023-03-08T02:04:32;3.17;;;2.25;;
39792;SDS011;26080;42.264;24.536;2023-03-08T02:06:57;8.95;;;4.28;;
39792;SDS011;26080;42.264;24.536;2023-03-08T02:09:23;2.92;;;2.00;;
39792;SDS011;26080;42.264;24.536;2023-03-08T02:11:49;3.38;;;2.15;;
39792;SDS011;26080;42.264;24.536;2023-03-08T02:14:14;2.70;;;1.98;;
39792;SDS011;26080;42.264;24.536;2023-03-08T02:16:40;4.60;;;2.22;;
39792;SDS011;26080;42.264;24.536;2023-03-08T02:19:28;5.60;;;3.10;;
39792;SDS011;26080;42.264;24.536;2023-03-08T02:21:58;0.57;;;0.57;;
39792;SDS011;26080;42.264;24.536;2023-03-08T02:24:24;2.10;;;1.55;;
39792;SDS011;26080;42.264;24.536;2023-03-08T02:26:56;5.47;;;3.33;;
39792;SDS011;26080;42.264;24.536;2023-03-08T02:29:25;7.97;;;2.92;;
39792;SDS011;26080;42.264;24.536;2023-03-08T02:31:51;2.38;;;1.38;;
39792;SDS011;26080;42.264;24.536;2023-03-08T02:34:16;1.77;;;1.67;;
39792;SDS011;26080;42.264;24.536;2023-03-08T02:36:42;2.38;;;1.63;;
39792;SDS011;26080;42.264;24.536;2023-03-08T02:39:07;2.80;;;1.05;;
39792;SDS011;26080;42.264;24.536;2023-03-08T02:41:33;3.55;;;2.10;;
39792;SDS011;26080;42.264;24.536;2023-03-08T02:43:58;1.90;;;1.35;;
39792;SDS011;26080;42.264;24.536;2023-03-08T02:46:24;1.52;;;1.20;;
39792;SDS011;26080;42.264;24.536;2023-03-08T02:48:49;5.53;;;3.60;;
39792;SDS011;26080;42.264;24.536;2023-03-08T02:51:16;3.65;;;2.72;;
39792;SDS011;26080;42.264;24.536;2023-03-08T02:53:42;9.85;;;5.55;;
39792;SDS011;26080;42.264;24.536;2023-03-08T02:56:08;2.92;;;1.70;;
39792;SDS011;26080;42.264;24.536;2023-03-08T02:58:33;1.20;;;0.73;;
39792;SDS011;26080;42.264;24.536;2023-03-08T03:00:59;12.35;;;2.45;;
39792;SDS011;26080;42.264;24.536;2023-03-08T03:03:24;1.25;;;1.15;;
39792;SDS011;26080;42.264;24.536;2023-03-08T03:05:50;1.20;;;1.02;;
39792;SDS011;26080;42.264;24.536;2023-03-08T03:08:15;1.02;;;0.93;;
39792;SDS011;26080;42.264;24.536;2023-03-08T03:10:41;3.00;;;1.27;;
39792;SDS011;26080;42.264;24.536;2023-03-08T03:13:06;3.22;;;2.33;;
39792;SDS011;26080;42.264;24.536;2023-03-08T03:15:32;0.98;;;0.90;;
39792;SDS011;26080;42.264;24.536;2023-03-08T03:18:01;0.68;;;0.57;;
39792;SDS011;26080;42.264;24.536;2023-03-08T03:20:26;1.73;;;1.08;;
39792;SDS011;26080;42.264;24.536;2023-03-08T03:22:52;1.42;;;1.33;;
39792;SDS011;26080;42.264;24.536;2023-03-08T03:25:17;3.83;;;1.85;;
39792;SDS011;26080;42.264;24.536;2023-03-08T03:27:43;1.33;;;1.23;;
39792;SDS011;26080;42.264;24.536;2023-03-08T03:30:09;0.95;;;0.55;;
39792;SDS011;26080;42.264;24.536;2023-03-08T03:32:35;2.47;;;1.45;;
39792;SDS011;26080;42.264;24.536;2023-03-08T03:35:00;2.40;;;1.90;;
39792;SDS011;26080;42.264;24.536;2023-03-08T03:37:26;1.65;;;1.05;;
39792;SDS011;26080;42.264;24.536;2023-03-08T03:39:51;0.75;;;0.75;;
39792;SDS011;26080;42.264;24.536;2023-03-08T03:42:17;1.20;;;0.88;;
39792;SDS011;26080;42.264;24.536;2023-03-08T03:44:43;1.25;;;0.93;;
39792;SDS011;26080;42.264;24.536;2023-03-08T03:47:09;1.27;;;1.17;;
39792;SDS011;26080;42.264;24.536;2023-03-08T03:49:35;1.10;;;1.02;;
39792;SDS011;26080;42.264;24.536;2023-03-08T03:52:00;1.65;;;1.42;;
39792;SDS011;26080;42.264;24.536;2023-03-08T03:54:26;1.58;;;1.48;;
39792;SDS011;26080;42.264;24.536;2023-03-08T03:56:51;1.30;;;1.20;;
39792;SDS011;26080;42.264;24.536;2023-03-08T03:59:17;1.15;;;1.05;;
39792;SDS011;26080;42.264;24.536;2023-03-08T04:01:43;1.38;;;1.27;;
39792;SDS011;26080;42.264;24.536;2023-03-08T04:04:08;0.40;;;0.40;;
39792;SDS011;26080;42.264;24.536;2023-03-08T04:06:35;1.48;;;1.38;;
39792;SDS011;26080;42.264;24.536;2023-03-08T04:09:02;2.60;;;1.85;;
39792;SDS011;26080;42.264;24.536;2023-03-08T04:11:36;3.05;;;1.48;;
39792;SDS011;26080;42.264;24.536;2023-03-08T04:14:03;0.40;;;0.40;;
39792;SDS011;26080;42.264;24.536;2023-03-08T04:16:29;1.95;;;1.85;;
39792;SDS011;26080;42.264;24.536;2023-03-08T04:19:00;0.90;;;0.85;;
39792;SDS011;26080;42.264;24.536;2023-03-08T04:21:29;2.22;;;1.55;;
39792;SDS011;26080;42.264;24.536;2023-03-08T04:23:55;3.45;;;0.90;;
39792;SDS011;26080;42.264;24.536;2023-03-08T04:26:21;0.65;;;0.57;;
39792;SDS011;26080;42.264;24.536;2023-03-08T04:28:46;3.75;;;2.70;;
39792;SDS011;26080;42.264;24.536;2023-03-08T04:33:38;5.97;;;4.30;;
39792;SDS011;26080;42.264;24.536;2023-03-08T04:36:03;3.50;;;2.03;;
39792;SDS011;26080;42.264;24.536;2023-03-08T04:38:29;2.75;;;1.38;;
39792;SDS011;26080;42.264;24.536;2023-03-08T04:40:57;1.88;;;1.45;;
39792;SDS011;26080;42.264;24.536;2023-03-08T04:43:38;4.07;;;1.40;;
39792;SDS011;26080;42.264;24.536;2023-03-08T04:46:05;4.75;;;3.25;;
39792;SDS011;26080;42.264;24.536;2023-03-08T04:48:31;3.08;;;2.10;;
39792;SDS011;26080;42.264;24.536;2023-03-08T04:50:58;15.48;;;6.97;;
39792;SDS011;26080;42.264;24.536;2023-03-08T04:53:25;11.50;;;7.03;;
39792;SDS011;26080;42.264;24.536;2023-03-08T04:55:52;8.10;;;3.88;;
39792;SDS011;26080;42.264;24.536;2023-03-08T04:58:18;11.45;;;6.60;;
39792;SDS011;26080;42.264;24.536;2023-03-08T05:00:44;8.50;;;5.50;;
39792;SDS011;26080;42.264;24.536;2023-03-08T05:03:09;9.13;;;3.72;;
39792;SDS011;26080;42.264;24.536;2023-03-08T05:05:35;6.28;;;4.05;;
39792;SDS011;26080;42.264;24.536;2023-03-08T05:08:01;65.82;;;14.80;;
39792;SDS011;26080;42.264;24.536;2023-03-08T05:10:29;53.03;;;33.78;;
39792;SDS011;26080;42.264;24.536;2023-03-08T05:12:57;178.13;;;47.85;;
39792;SDS011;26080;42.264;24.536;2023-03-08T05:15:23;31.63;;;13.88;;
39792;SDS011;26080;42.264;24.536;2023-03-08T05:17:49;3.53;;;2.63;;
39792;SDS011;26080;42.264;24.536;2023-03-08T05:20:14;4.55;;;3.33;;
39792;SDS011;26080;42.264;24.536;2023-03-08T05:22:40;2.00;;;1.73;;
39792;SDS011;26080;42.264;24.536;2023-03-08T05:25:06;1.38;;;1.30;;
39792;SDS011;26080;42.264;24.536;2023-03-08T05:27:32;9.30;;;3.78;;
39792;SDS011;26080;42.264;24.536;2023-03-08T05:29:58;5.55;;;2.40;;
39792;SDS011;26080;42.264;24.536;2023-03-08T05:32:24;3.80;;;2.22;;
39792;SDS011;26080;42.264;24.536;2023-03-08T05:34:51;2.38;;;2.17;;
39792;SDS011;26080;42.264;24.536;2023-03-08T05:37:17;3.45;;;2.42;;
39792;SDS011;26080;42.264;24.536;2023-03-08T05:39:42;1.45;;;1.13;;
39792;SDS011;26080;42.264;24.536;2023-03-08T05:42:08;1.92;;;1.08;;
39792;SDS011;26080;42.264;24.536;2023-03-08T05:44:33;3.45;;;2.38;;
39792;SDS011;26080;42.264;24.536;2023-03-08T05:47:00;1.48;;;0.98;;
39792;SDS011;26080;42.264;24.536;2023-03-08T05:49:25;2.67;;;2.45;;
39792;SDS011;26080;42.264;24.536;2023-03-08T05:51:51;1.85;;;1.38;;
39792;SDS011;26080;42.264;24.536;2023-03-08T05:54:17;2.33;;;1.58;;
39792;SDS011;26080;42.264;24.536;2023-03-08T05:56:42;3.85;;;2.33;;
39792;SDS011;26080;42.264;24.536;2023-03-08T05:59:08;1.33;;;1.23;;
39792;SDS011;26080;42.264;24.536;2023-03-08T06:01:33;5.15;;;3.88;;
39792;SDS011;26080;42.264;24.536;2023-03-08T06:03:59;3.45;;;1.92;;
39792;SDS011;26080;42.264;24.536;2023-03-08T06:06:25;0.98;;;0.75;;
39792;SDS011;26080;42.264;24.536;2023-03-08T06:08:51;5.68;;;1.70;;
39792;SDS011;26080;42.264;24.536;2023-03-08T06:11:18;1.33;;;0.77;;
39792;SDS011;26080;42.264;24.536;2023-03-08T06:13:43;4.35;;;2.90;;
39792;SDS011;26080;42.264;24.536;2023-03-08T06:16:09;2.80;;;2.60;;
39792;SDS011;26080;42.264;24.536;2023-03-08T06:18:36;1.38;;;1.23;;
39792;SDS011;26080;42.264;24.536;2023-03-08T06:23:30;8.68;;;1.52;;
39792;SDS011;26080;42.264;24.536;2023-03-08T06:25:56;4.18;;;2.17;;
39792;SDS011;26080;42.264;24.536;2023-03-08T06:28:22;1.88;;;1.67;;
39792;SDS011;26080;42.264;24.536;2023-03-08T06:30:49;7.00;;;4.30;;
39792;SDS011;26080;42.264;24.536;2023-03-08T06:33:19;5.25;;;3.05;;
39792;SDS011;26080;42.264;24.536;2023-03-08T06:36:03;1.48;;;1.27;;
39792;SDS011;26080;42.264;24.536;2023-03-08T06:38:34;4.18;;;2.80;;
39792;SDS011;26080;42.264;24.536;2023-03-08T06:41:02;1.67;;;1.50;;
39792;SDS011;26080;42.264;24.536;2023-03-08T06:43:28;2.80;;;1.08;;
39792;SDS011;26080;42.264;24.536;2023-03-08T06:45:53;2.03;;;1.27;;
39792;SDS011;26080;42.264;24.536;2023-03-08T06:48:19;5.07;;;1.95;;
39792;SDS011;26080;42.264;24.536;2023-03-08T06:50:45;1.00;;;0.93;;
39792;SDS011;26080;42.264;24.536;2023-03-08T06:53:11;5.70;;;2.63;;
39792;SDS011;26080;42.264;24.536;2023-03-08T06:55:37;4.22;;;2.30;;
39792;SDS011;26080;42.264;24.536;2023-03-08T06:58:03;2.08;;;1.55;;
39792;SDS011;26080;42.264;24.536;2023-03-08T07:00:30;1.48;;;0.90;;
39792;SDS011;26080;42.264;24.536;2023-03-08T07:02:56;4.00;;;1.30;;
39792;SDS011;26080;42.264;24.536;2023-03-08T07:05:21;1.08;;;1.05;;
39792;SDS011;26080;42.264;24.536;2023-03-08T07:07:47;4.78;;;1.63;;
39792;SDS011;26080;42.264;24.536;2023-03-08T07:10:14;2.17;;;1.35;;
39792;SDS011;26080;42.264;24.536;2023-03-08T07:12:43;1.70;;;1.13;;
39792;SDS011;26080;42.264;24.536;2023-03-08T07:15:13;1.83;;;1.48;;
39792;SDS011;26080;42.264;24.536;2023-03-08T07:17:42;12.75;;;4.10;;
39792;SDS011;26080;42.264;24.536;2023-03-08T07:20:09;3.88;;;2.10;;
39792;SDS011;26080;42.264;24.536;2023-03-08T07:22:35;3.22;;;2.47;;
39792;SDS011;26080;42.264;24.536;2023-03-08T07:25:01;3.05;;;1.42;;
39792;SDS011;26080;42.264;24.536;2023-03-08T07:27:26;0.75;;;0.73;;
39792;SDS011;26080;42.264;24.536;2023-03-08T07:29:52;1.92;;;1.38;;
39792;SDS011;26080;42.264;24.536;2023-03-08T07:32:17;2.55;;;2.00;;
39792;SDS011;26080;42.264;24.536;2023-03-08T07:34:43;1.77;;;1.08;;
39792;SDS011;26080;42.264;24.536;2023-03-08T07:37:12;3.60;;;1.70;;
39792;SDS011;26080;42.264;24.536;2023-03-08T07:39:38;1.40;;;1.08;;
39792;SDS011;26080;42.264;24.536;2023-03-08T07:42:04;0.40;;;0.40;;
39792;SDS011;26080;42.264;24.536;2023-03-08T07:44:29;3.40;;;0.52;;
39792;SDS011;26080;42.264;24.536;2023-03-08T07:46:55;2.55;;;1.30;;
39792;SDS011;26080;42.264;24.536;2023-03-08T07:49:20;1.08;;;0.80;;
39792;SDS011;26080;42.264;24.536;2023-03-08T07:51:47;0.60;;;0.60;;
39792;SDS011;26080;42.264;24.536;2023-03-08T07:54:13;0.63;;;0.63;;
39792;SDS011;26080;42.264;24.536;2023-03-08T07:56:38;0.90;;;0.70;;
39792;SDS011;26080;42.264;24.536;2023-03-08T07:59:04;1.67;;;1.45;;
39792;SDS011;26080;42.264;24.536;2023-03-08T08:01:30;0.45;;;0.38;;
39792;SDS011;26080;42.264;24.536;2023-03-08T08:03:57;8.02;;;1.35;;
39792;SDS011;26080;42.264;24.536;2023-03-08T08:06:23;0.93;;;0.28;;
39792;SDS011;26080;42.264;24.536;2023-03-08T08:08:48;0.55;;;0.47;;
39792;SDS011;26080;42.264;24.536;2023-03-08T08:11:15;3.42;;;1.27;;
39792;SDS011;26080;42.264;24.536;2023-03-08T08:13:41;1.15;;;0.90;;
39792;SDS011;26080;42.264;24.536;2023-03-08T08:16:07;7.70;;;2.25;;
39792;SDS011;26080;42.264;24.536;2023-03-08T08:18:34;0.65;;;0.63;;
39792;SDS011;26080;42.264;24.536;2023-03-08T08:21:00;3.33;;;1.55;;
39792;SDS011;26080;42.264;24.536;2023-03-08T08:23:27;2.58;;;1.38;;
39792;SDS011;26080;42.264;24.536;2023-03-08T08:25:53;0.63;;;0.43;;
39792;SDS011;26080;42.264;24.536;2023-03-08T08:28:20;0.63;;;0.63;;
39792;SDS011;26080;42.264;24.536;2023-03-08T08:30:53;25.83;;;1.45;;
39792;SDS011;26080;42.264;24.536;2023-03-08T08:33:20;1.48;;;1.25;;
39792;SDS011;26080;42.264;24.536;2023-03-08T08:35:46;6.80;;;2.00;;
39792;SDS011;26080;42.264;24.536;2023-03-08T08:38:12;1.75;;;1.13;;
39792;SDS011;26080;42.264;24.536;2023-03-08T08:40:37;1.25;;;1.15;;
39792;SDS011;26080;42.264;24.536;2023-03-08T08:43:02;1.33;;;0.82;;
39792;SDS011;26080;42.264;24.536;2023-03-08T08:45:28;1.20;;;0.68;;
39792;SDS011;26080;42.264;24.536;2023-03-08T08:47:53;2.08;;;1.23;;
39792;SDS011;26080;42.264;24.536;2023-03-08T08:50:19;0.85;;;0.85;;
39792;SDS011;26080;42.264;24.536;2023-03-08T08:52:45;1.58;;;0.80;;
39792;SDS011;26080;42.264;24.536;2023-03-08T08:55:10;2.88;;;0.60;;
39792;SDS011;26080;42.264;24.536;2023-03-08T08:57:35;0.80;;;0.77;;
39792;SDS011;26080;42.264;24.536;2023-03-08T09:00:01;2.78;;;1.58;;
39792;SDS011;26080;42.264;24.536;2023-03-08T09:02:29;0.55;;;0.55;;
39792;SDS011;26080;42.264;24.536;2023-03-08T09:04:55;0.35;;;0.35;;
39792;SDS011;26080;42.264;24.536;2023-03-08T09:07:20;2.28;;;0.50;;
39792;SDS011;26080;42.264;24.536;2023-03-08T09:09:45;0.52;;;0.43;;
39792;SDS011;26080;42.264;24.536;2023-03-08T09:12:11;0.45;;;0.40;;
39792;SDS011;26080;42.264;24.536;2023-03-08T09:14:37;4.22;;;1.10;;
39792;SDS011;26080;42.264;24.536;2023-03-08T09:17:04;1.33;;;0.88;;
39792;SDS011;26080;42.264;24.536;2023-03-08T09:19:29;0.30;;;0.28;;
39792;SDS011;26080;42.264;24.536;2023-03-08T09:21:55;1.65;;;1.35;;
39792;SDS011;26080;42.264;24.536;2023-03-08T09:24:21;0.65;;;0.65;;
39792;SDS011;26080;42.264;24.536;2023-03-08T09:26:46;0.65;;;0.43;;
39792;SDS011;26080;42.264;24.536;2023-03-08T09:29:12;0.93;;;0.90;;
39792;SDS011;26080;42.264;24.536;2023-03-08T09:31:37;10.73;;;1.85;;
39792;SDS011;26080;42.264;24.536;2023-03-08T09:34:03;1.42;;;0.60;;
39792;SDS011;26080;42.264;24.536;2023-03-08T09:36:32;5.03;;;1.05;;
39792;SDS011;26080;42.264;24.536;2023-03-08T09:38:59;1.05;;;0.70;;
39792;SDS011;26080;42.264;24.536;2023-03-08T09:41:31;1.98;;;0.95;;
39792;SDS011;26080;42.264;24.536;2023-03-08T09:49:17;1.83;;;0.88;;
39792;SDS011;26080;42.264;24.536;2023-03-08T09:51:48;1.65;;;0.90;;
39792;SDS011;26080;42.264;24.536;2023-03-08T09:54:19;0.47;;;0.47;;
39792;SDS011;26080;42.264;24.536;2023-03-08T09:56:49;0.57;;;0.57;;
39792;SDS011;26080;42.264;24.536;2023-03-08T09:59:21;10.70;;;1.50;;
39792;SDS011;26080;42.264;24.536;2023-03-08T10:02:01;0.60;;;0.50;;
39792;SDS011;26080;42.264;24.536;2023-03-08T10:04:45;0.75;;;0.75;;
39792;SDS011;26080;42.264;24.536;2023-03-08T10:07:34;7.22;;;1.45;;
39792;SDS011;26080;42.264;24.536;2023-03-08T10:10:22;5.82;;;3.40;;
39792;SDS011;26080;42.264;24.536;2023-03-08T10:12:51;2.47;;;0.77;;
39792;SDS011;26080;42.264;24.536;2023-03-08T10:15:21;1.02;;;0.52;;
39792;SDS011;26080;42.264;24.536;2023-03-08T10:17:58;1.27;;;0.95;;
39792;SDS011;26080;42.264;24.536;2023-03-08T10:20:30;0.63;;;0.57;;
39792;SDS011;26080;42.264;24.536;2023-03-08T10:25:44;3.85;;;2.83;;
39792;SDS011;26080;42.264;24.536;2023-03-08T10:28:18;2.78;;;1.27;;
39792;SDS011;26080;42.264;24.536;2023-03-08T10:30:46;3.15;;;1.35;;
39792;SDS011;26080;42.264;24.536;2023-03-08T10:33:25;2.72;;;2.03;;
39792;SDS011;26080;42.264;24.536;2023-03-08T10:38:34;1.33;;;0.95;;
39792;SDS011;26080;42.264;24.536;2023-03-08T10:41:16;9.98;;;3.97;;
39792;SDS011;26080;42.264;24.536;2023-03-08T10:46:22;5.35;;;1.90;;
39792;SDS011;26080;42.264;24.536;2023-03-08T10:48:50;5.90;;;1.80;;
39792;SDS011;26080;42.264;24.536;2023-03-08T10:51:19;1.27;;;1.13;;
39792;SDS011;26080;42.264;24.536;2023-03-08T10:54:02;0.55;;;0.43;;
39792;SDS011;26080;42.264;24.536;2023-03-08T11:02:01;0.77;;;0.50;;
39792;SDS011;26080;42.264;24.536;2023-03-08T11:04:50;5.00;;;1.95;;
39792;SDS011;26080;42.264;24.536;2023-03-08T11:07:24;25.95;;;2.97;;
39792;SDS011;26080;42.264;24.536;2023-03-08T11:12:36;0.30;;;0.30;;
39792;SDS011;26080;42.264;24.536;2023-03-08T11:15:11;0.80;;;0.57;;
39792;SDS011;26080;42.264;24.536;2023-03-08T11:17:38;6.05;;;1.45;;
39792;SDS011;26080;42.264;24.536;2023-03-08T11:22:51;0.75;;;0.55;;
39792;SDS011;26080;42.264;24.536;2023-03-08T11:36:34;0.40;;;0.40;;
39792;SDS011;26080;42.264;24.536;2023-03-08T11:44:50;0.20;;;0.20;;
39792;SDS011;26080;42.264;24.536;2023-03-08T11:50:34;1.45;;;0.85;;
39792;SDS011;26080;42.264;24.536;2023-03-08T12:04:36;1.48;;;0.57;;
39792;SDS011;26080;42.264;24.536;2023-03-08T12:10:02;1.85;;;0.52;;
39792;SDS011;26080;42.264;24.536;2023-03-08T12:12:35;0.43;;;0.40;;
39792;SDS011;26080;42.264;24.536;2023-03-08T12:15:33;0.40;;;0.40;;
39792;SDS011;26080;42.264;24.536;2023-03-08T12:18:12;1.00;;;0.38;;
39792;SDS011;26080;42.264;24.536;2023-03-08T12:20:43;0.60;;;0.30;;
39792;SDS011;26080;42.264;24.536;2023-03-08T12:26:18;0.52;;;0.52;;
39792;SDS011;26080;42.264;24.536;2023-03-08T12:29:14;0.20;;;0.20;;
39792;SDS011;26080;42.264;24.536;2023-03-08T12:31:49;0.30;;;0.30;;
39792;SDS011;26080;42.264;24.536;2023-03-08T12:37:00;0.13;;;0.13;;
39792;SDS011;26080;42.264;24.536;2023-03-08T12:39:35;0.55;;;0.50;;
39792;SDS011;26080;42.264;24.536;2023-03-08T12:44:27;0.45;;;0.45;;
39792;SDS011;26080;42.264;24.536;2023-03-08T12:46:55;0.40;;;0.40;;
39792;SDS011;26080;42.264;24.536;2023-03-08T12:52:03;0.55;;;0.52;;
39792;SDS011;26080;42.264;24.536;2023-03-08T12:57:23;2.30;;;0.55;;
39792;SDS011;26080;42.264;24.536;2023-03-08T13:00:00;3.28;;;1.50;;
39792;SDS011;26080;42.264;24.536;2023-03-08T13:02:31;4.15;;;1.15;;
39792;SDS011;26080;42.264;24.536;2023-03-08T13:08:05;1.50;;;1.33;;
39792;SDS011;26080;42.264;24.536;2023-03-08T13:10:40;0.63;;;0.60;;
39792;SDS011;26080;42.264;24.536;2023-03-08T13:15:34;0.75;;;0.50;;
39792;SDS011;26080;42.264;24.536;2023-03-08T13:28:34;0.40;;;0.40;;
39792;SDS011;26080;42.264;24.536;2023-03-08T13:31:03;0.90;;;0.63;;
39792;SDS011;26080;42.264;24.536;2023-03-08T13:33:39;0.30;;;0.30;;
39792;SDS011;26080;42.264;24.536;2023-03-08T13:41:44;2.42;;;0.93;;
39792;SDS011;26080;42.264;24.536;2023-03-08T13:44:17;0.35;;;0.35;;
39792;SDS011;26080;42.264;24.536;2023-03-08T13:46:54;0.55;;;0.55;;
39792;SDS011;26080;42.264;24.536;2023-03-08T13:49:22;0.82;;;0.55;;
39792;SDS011;26080;42.264;24.536;2023-03-08T13:51:51;0.10;;;0.10;;
39792;SDS011;26080;42.264;24.536;2023-03-08T13:54:24;0.82;;;0.28;;
39792;SDS011;26080;42.264;24.536;2023-03-08T13:56:54;6.70;;;1.45;;
39792;SDS011;26080;42.264;24.536;2023-03-08T13:59:24;0.40;;;0.40;;
39792;SDS011;26080;42.264;24.536;2023-03-08T14:01:51;0.38;;;0.38;;
39792;SDS011;26080;42.264;24.536;2023-03-08T14:04:19;0.52;;;0.30;;
39792;SDS011;26080;42.264;24.536;2023-03-08T14:06:47;1.75;;;0.98;;
39792;SDS011;26080;42.264;24.536;2023-03-08T14:09:14;0.30;;;0.30;;
39792;SDS011;26080;42.264;24.536;2023-03-08T14:11:41;0.47;;;0.40;;
39792;SDS011;26080;42.264;24.536;2023-03-08T14:14:13;2.72;;;0.68;;
39792;SDS011;26080;42.264;24.536;2023-03-08T14:16:44;4.20;;;0.70;;
39792;SDS011;26080;42.264;24.536;2023-03-08T14:21:46;0.60;;;0.30;;
39792;SDS011;26080;42.264;24.536;2023-03-08T14:24:20;1.85;;;0.57;;
39792;SDS011;26080;42.264;24.536;2023-03-08T14:26:52;5.45;;;1.40;;
39792;SDS011;26080;42.264;24.536;2023-03-08T14:29:23;0.63;;;0.60;;
39792;SDS011;26080;42.264;24.536;2023-03-08T14:31:51;0.60;;;0.60;;
39792;SDS011;26080;42.264;24.536;2023-03-08T14:34:39;0.45;;;0.45;;
39792;SDS011;26080;42.264;24.536;2023-03-08T14:39:39;0.73;;;0.57;;
39792;SDS011;26080;42.264;24.536;2023-03-08T14:42:07;0.85;;;0.38;;
39792;SDS011;26080;42.264;24.536;2023-03-08T14:44:34;1.65;;;0.63;;
39792;SDS011;26080;42.264;24.536;2023-03-08T14:47:06;0.77;;;0.70;;
39792;SDS011;26080;42.264;24.536;2023-03-08T14:50:03;0.73;;;0.52;;
39792;SDS011;26080;42.264;24.536;2023-03-08T14:52:46;1.85;;;1.13;;
39792;SDS011;26080;42.264;24.536;2023-03-08T14:58:02;1.25;;;0.30;;
39792;SDS011;26080;42.264;24.536;2023-03-08T15:00:33;0.20;;;0.20;;
39792;SDS011;26080;42.264;24.536;2023-03-08T15:03:00;0.30;;;0.30;;
39792;SDS011;26080;42.264;24.536;2023-03-08T15:05:25;10.73;;;0.70;;
39792;SDS011;26080;42.264;24.536;2023-03-08T15:07:52;1.50;;;0.75;;
39792;SDS011;26080;42.264;24.536;2023-03-08T15:10:32;3.83;;;0.60;;
39792;SDS011;26080;42.264;24.536;2023-03-08T15:13:01;1.17;;;0.63;;
39792;SDS011;26080;42.264;24.536;2023-03-08T15:15:27;1.08;;;0.80;;
39792;SDS011;26080;42.264;24.536;2023-03-08T15:17:53;0.73;;;0.50;;
39792;SDS011;26080;42.264;24.536;2023-03-08T15:20:19;0.20;;;0.20;;
39792;SDS011;26080;42.264;24.536;2023-03-08T15:22:45;0.35;;;0.35;;
39792;SDS011;26080;42.264;24.536;2023-03-08T15:25:18;1.00;;;0.73;;
39792;SDS011;26080;42.264;24.536;2023-03-08T15:27:45;2.20;;;0.93;;
39792;SDS011;26080;42.264;24.536;2023-03-08T15:30:15;1.13;;;0.77;;
39792;SDS011;26080;42.264;24.536;2023-03-08T15:32:51;0.32;;;0.32;;
39792;SDS011;26080;42.264;24.536;2023-03-08T15:35:17;0.35;;;0.35;;
39792;SDS011;26080;42.264;24.536;2023-03-08T15:37:43;2.10;;;0.80;;
39792;SDS011;26080;42.264;24.536;2023-03-08T15:40:14;1.65;;;0.57;;
39792;SDS011;26080;42.264;24.536;2023-03-08T15:42:41;0.65;;;0.55;;
39792;SDS011;26080;42.264;24.536;2023-03-08T15:45:07;5.68;;;1.05;;
39792;SDS011;26080;42.264;24.536;2023-03-08T15:47:37;10.80;;;0.95;;
39792;SDS011;26080;42.264;24.536;2023-03-08T15:50:04;10.50;;;2.78;;
39792;SDS011;26080;42.264;24.536;2023-03-08T15:52:36;1.05;;;0.68;;
39792;SDS011;26080;42.264;24.536;2023-03-08T15:55:02;0.85;;;0.50;;
39792;SDS011;26080;42.264;24.536;2023-03-08T15:57:27;1.75;;;0.95;;
39792;SDS011;26080;42.264;24.536;2023-03-08T15:59:53;14.43;;;1.40;;
39792;SDS011;26080;42.264;24.536;2023-03-08T16:02:19;0.38;;;0.38;;
39792;SDS011;26080;42.264;24.536;2023-03-08T16:04:44;1.25;;;0.80;;
39792;SDS011;26080;42.264;24.536;2023-03-08T16:07:15;1.67;;;1.15;;
39792;SDS011;26080;42.264;24.536;2023-03-08T16:09:41;5.25;;;1.40;;
39792;SDS011;26080;42.264;24.536;2023-03-08T16:12:08;7.47;;;0.30;;
39792;SDS011;26080;42.264;24.536;2023-03-08T16:14:34;12.00;;;2.35;;
39792;SDS011;26080;42.264;24.536;2023-03-08T16:17:00;19.70;;;2.58;;
39792;SDS011;26080;42.264;24.536;2023-03-08T16:19:29;0.90;;;0.57;;
39792;SDS011;26080;42.264;24.536;2023-03-08T16:21:56;5.45;;;2.80;;
39792;SDS011;26080;42.264;24.536;2023-03-08T16:24:21;19.45;;;2.83;;
39792;SDS011;26080;42.264;24.536;2023-03-08T16:26:47;7.03;;;2.50;;